地図

経路データ

SID SEASON NUMBER BASIN SUBBASIN NAME ISO_TIME NATURE LAT LON WMO_WIND WMO_PRES WMO_AGENCY TRACK_TYPE DIST2LAND LANDFALL IFLAG USA_AGENCY USA_ATCF_ID USA_LAT USA_LON USA_RECORD USA_STATUS USA_WIND USA_PRES USA_SSHS USA_R34_NE USA_R34_SE USA_R34_SW USA_R34_NW USA_R50_NE USA_R50_SE USA_R50_SW USA_R50_NW USA_R64_NE USA_R64_SE USA_R64_SW USA_R64_NW USA_POCI USA_ROCI USA_RMW USA_EYE TOKYO_LAT TOKYO_LON TOKYO_GRADE TOKYO_WIND TOKYO_PRES TOKYO_R50_DIR TOKYO_R50_LONG TOKYO_R50_SHORT TOKYO_R30_DIR TOKYO_R30_LONG TOKYO_R30_SHORT TOKYO_LAND CMA_LAT CMA_LON CMA_CAT CMA_WIND CMA_PRES HKO_LAT HKO_LON HKO_CAT HKO_WIND HKO_PRES NEWDELHI_LAT NEWDELHI_LON NEWDELHI_GRADE NEWDELHI_WIND NEWDELHI_PRES NEWDELHI_CI NEWDELHI_DP NEWDELHI_POCI REUNION_LAT REUNION_LON REUNION_TYPE REUNION_WIND REUNION_PRES REUNION_TNUM REUNION_CI REUNION_RMW REUNION_R34_NE REUNION_R34_SE REUNION_R34_SW REUNION_R34_NW REUNION_R50_NE REUNION_R50_SE REUNION_R50_SW REUNION_R50_NW REUNION_R64_NE REUNION_R64_SE REUNION_R64_SW REUNION_R64_NW BOM_LAT BOM_LON BOM_TYPE BOM_WIND BOM_PRES BOM_TNUM BOM_CI BOM_RMW BOM_R34_NE BOM_R34_SE BOM_R34_SW BOM_R34_NW BOM_R50_NE BOM_R50_SE BOM_R50_SW BOM_R50_NW BOM_R64_NE BOM_R64_SE BOM_R64_SW BOM_R64_NW BOM_ROCI BOM_POCI BOM_EYE BOM_POS_METHOD BOM_PRES_METHOD NADI_LAT NADI_LON NADI_CAT NADI_WIND NADI_PRES WELLINGTON_LAT WELLINGTON_LON WELLINGTON_WIND WELLINGTON_PRES DS824_LAT DS824_LON DS824_STAGE DS824_WIND DS824_PRES TD9636_LAT TD9636_LON TD9636_STAGE TD9636_WIND TD9636_PRES TD9635_LAT TD9635_LON TD9635_WIND TD9635_PRES TD9635_ROCI NEUMANN_LAT NEUMANN_LON NEUMANN_CLASS NEUMANN_WIND NEUMANN_PRES MLC_LAT MLC_LON MLC_CLASS MLC_WIND MLC_PRES USA_GUST BOM_GUST BOM_GUST_PER REUNION_GUST REUNION_GUST_PER USA_SEAHGT USA_SEARAD_NE USA_SEARAD_SE USA_SEARAD_SW USA_SEARAD_NW STORM_SPEED STORM_DIR
1972366S08174 1973 142 SP MM NOT_NAMED 1972-12-31 00:00:00 TS -8.00000 173.500 main 1049 1049 O________OO_O_ jtwc_sh SH071973 -8.00000 173.500 -1 -8.00000 173.500 TC 35 -8.00000 173.500 2 -8.00000 173.500 TC 20 18 107
1972366S08174 1973 142 SP MM NOT_NAMED 1972-12-31 03:00:00 TS -8.26023 174.358 main 1040 985 P________PP_P_ SH071973 -8.23540 174.347 -1 -8.23540 174.347 TC 35 -8.26461 174.322 2 -8.30553 174.417 TC 20 18 108
1972366S08174 1973 142 SP MM NOT_NAMED 1972-12-31 06:00:00 TS -8.53570 175.216 main 985 921 O________OP_O_ jtwc_sh SH071973 -8.50000 175.200 -1 -8.50000 175.200 TC 35 -8.54280 175.166 2 -8.60000 175.300 TC 20 18 109
1972366S08174 1973 142 SP MM NOT_NAMED 1972-12-31 09:00:00 TS -8.84339 176.082 main 917 843 P________PP_P_ SH071973 -8.81967 176.070 -1 -8.81967 176.070 TC 35 -8.84961 176.051 2 -8.88460 176.135 TC 22 19 111
1972366S08174 1973 142 SP MM NOT_NAMED 1972-12-31 12:00:00 TS -9.20000 177.000 main 839 764 O________OO_O_ jtwc_sh SH071973 -9.20000 177.000 -1 -9.20000 177.000 TC 35 -9.20000 177.000 2 -9.20000 177.000 TC 25 21 112
1972366S08174 1973 142 SP MM NOT_NAMED 1972-12-31 15:00:00 TS -9.61086 178.021 main 764 699 P________PP_P_ SH071973 -9.63501 178.043 -1 -9.63501 178.043 TC 35 -9.60349 178.020 2 -9.56990 177.978 TC 25 22 113
1972366S08174 1973 142 SP MM NOT_NAMED 1972-12-31 18:00:00 TS -10.0622 179.067 main 687 638 O________OP_O_ jtwc_sh SH071973 -10.1000 179.100 -1 -10.1000 179.100 TC 35 -10.0487 179.067 2 -10.0000 179.000 TC 25 22 114
1972366S08174 1973 142 SP MM NOT_NAMED 1972-12-31 21:00:00 TS -10.5279 180.082 main 638 594 P________PP_P_ SH071973 -10.5499 -179.897 -1 -10.5499 -179.897 TC 35 -10.5193 -179.920 2 -10.4926 -179.955 TC 27 21 116
1972366S08174 1973 142 SP MM NOT_NAMED 1973-01-01 00:00:00 TS -11.0000 181.000 main 594 567 O________OO_O_ jtwc_sh SH071973 -11.0000 -179.000 -1 -11.0000 181.000 TC 35 -11.0000 -179.000 2 -11.0000 -179.000 TC 30 19 119
1972366S08174 1973 142 SP MM NOT_NAMED 1973-01-01 03:00:00 TS -11.4470 181.758 main 575 546 P________PP_P_ SH071973 -11.4421 -178.247 -1 -11.4421 -178.247 TC 35 -11.4541 -178.232 2 -11.4496 -178.240 TC 30 17 123
1972366S08174 1973 142 SP MM NOT_NAMED 1973-01-01 06:00:00 TS -11.9045 182.409 main 550 471 O________OP_O_ jtwc_sh SH071973 -11.9000 -177.600 -1 -11.9000 182.400 TC 35 -11.9181 -177.564 2 -11.9000 -177.600 TC 30 16 127
1972366S08174 1973 142 SP MM NOT_NAMED 1973-01-01 09:00:00 TS -12.3881 183.026 main 471 395 P________PP_P_ SH071973 -12.3848 -176.977 -1 -12.3848 -176.977 TC 35 -12.3981 -176.963 2 -12.3848 -176.977 TC 32 15 131
1972366S08174 1973 142 SP MM NOT_NAMED 1973-01-01 12:00:00 TS -12.9000 183.600 main 395 335 O________OO_O_ jtwc_sh SH071973 -12.9000 -176.400 -1 -12.9000 183.600 TC 35 -12.9000 -176.400 2 -12.9000 -176.400 TC 35 15 133
1972366S08174 1973 142 SP MM NOT_NAMED 1973-01-01 15:00:00 TS -13.4398 184.168 main 324 273 P________PP_P_ SH071973 -13.4423 -175.842 -1 -13.4423 -175.842 TC 35 -13.4321 -175.801 2 -13.4423 -175.842 TC 35 16 135
1972366S08174 1973 142 SP MM NOT_NAMED 1973-01-01 18:00:00 TS -13.9961 184.717 main 275 238 O________OP_O_ jtwc_sh SH071973 -14.0000 -175.300 -1 -14.0000 184.700 TC 35 -13.9845 -175.232 2 -14.0000 -175.300 TC 35 16 136
1972366S08174 1973 142 SP MM NOT_NAMED 1973-01-01 21:00:00 TS -14.5543 185.274 main 239 225 P________PP_P_ SH071973 -14.5575 -174.735 -1 -14.5575 -174.735 TC 35 -14.5447 -174.698 2 -14.5575 -174.735 TC 35 15 136
1972366S08174 1973 142 SP MM NOT_NAMED 1973-01-02 00:00:00 TS -15.1000 185.800 main 225 225 O________OO_O_ jtwc_sh SH071973 -15.1000 -174.200 -1 -15.1000 185.800 TC 35 -15.1000 -174.200 2 -15.1000 -174.200 TC 35 14 137
1972366S08174 1973 142 SP MM NOT_NAMED 1973-01-02 03:00:00 TS -15.6017 186.275 main 233 233 P________PP_P_ SH071973 -15.5998 -173.727 -1 -15.5998 -173.727 TC 35 -15.6074 -173.718 2 -15.5998 -173.727 TC 35 13 139
1972366S08174 1973 142 SP MM NOT_NAMED 1973-01-02 06:00:00 TS -16.1030 186.707 main 268 268 O________OP_O_ jtwc_sh SH071973 -16.1000 -173.300 -1 -16.1000 186.700 TC 35 -16.1121 -173.274 2 -16.1000 -173.300 TC 35 14 146
1972366S08174 1973 142 SP MM NOT_NAMED 1973-01-02 09:00:00 TS -16.7372 187.070 main 326 326 P________PP_P_ SH071973 -16.6274 -172.885 -1 -16.6274 -172.885 TC 35 -16.6357 -172.868 2 -16.6274 -172.892 TC 37 14 153
1972366S08174 1973 142 SP MM NOT_NAMED 1973-01-02 12:00:00 TS -17.3693 187.378 main 402 402 O________OO_O_ jtwc_sh SH071973 -17.2000 -172.500 -1 -17.2000 187.500 TC 35 -17.2000 -172.500 2 -17.2000 -172.500 TC 40 14 153
1972366S08174 1973 142 SP MM NOT_NAMED 1973-01-02 15:00:00 TS -17.9479 187.729 main 458 458 P________PP_P_ SH071973 -17.8275 -172.127 -1 -17.8275 -172.127 TC 35 -17.8602 -172.112 2 -17.8276 -172.070 TC 40 14 148
1972366S08174 1973 142 SP MM NOT_NAMED 1973-01-02 18:00:00 TS -18.5279 188.133 main 527 527 O________OP_O_ jtwc_sh SH071973 -18.5000 -171.800 -1 -18.5000 188.200 TC 35 -18.5574 -171.767 2 -18.5000 -171.700 TC 40 15 150
1972366S08174 1973 142 SP MM NOT_NAMED 1973-01-02 21:00:00 TS -19.2202 188.512 main 608 608 P________PP_P_ SH071973 -19.2075 -171.505 -1 -19.2075 -171.505 TC 35 -19.2509 -171.487 2 -19.2149 -171.455 TC 42 15 159
1972366S08174 1973 142 SP MM NOT_NAMED 1973-01-03 00:00:00 TS -19.9000 188.700 main 689 689 O________OO_O_ jtwc_sh SH071973 -19.9000 -171.300 -1 -19.9000 188.700 TC 35 -19.9000 -171.300 2 -19.9000 -171.300 TC 45 13 168
1972366S08174 1973 142 SP MM NOT_NAMED 1973-01-03 03:00:00 TS -20.5261 188.811 main 757 757 P________PP_P_ SH071973 -20.5449 -171.197 -1 -20.5449 -171.197 TC 35 -20.5270 -171.214 2 -20.4874 -171.148 TC 45 12 175
1972366S08174 1973 142 SP MM NOT_NAMED 1973-01-03 06:00:00 TS -21.0736 188.820 main 823 823 O________OP_O_ jtwc_sh SH071973 -21.1000 -171.200 -1 -21.1000 188.800 TC 35 -21.0944 -171.220 2 -21.0000 -171.100 TC 45 10 184
1972366S08174 1973 142 SP MM NOT_NAMED 1973-01-03 09:00:00 TS -21.5655 188.735 main 877 877 P________PP_P_ SH071973 -21.5825 -171.277 -1 -21.5825 -171.277 TC 35 -21.5647 -171.292 2 -21.5325 -171.212 TC 47 9 194
1972366S08174 1973 142 SP MM NOT_NAMED 1973-01-03 12:00:00 TS -21.9000 188.600 main 910 910 O________OO_O_ jtwc_sh SH071973 -21.9000 -171.400 -1 -21.9000 188.600 TC 35 -21.9000 -171.400 2 -21.9000 -171.400 TC 50 5 207
1972366S08174 1973 142 SP MM NOT_NAMED 1973-01-03 15:00:00 TS -22.0012 188.493 main 920 919 P________PP_P_ SH071973 -22.0100 -171.493 -1 -22.0100 -171.493 TC 35 -22.0249 -171.485 2 -21.9600 -171.558 TC 52 2 249
1972366S08174 1973 142 SP MM NOT_NAMED 1973-01-03 18:00:00 TS -21.9812 188.375 main 919 918 O________OP_O_ jtwc_sh SH071973 -22.0000 -171.600 -1 -22.0000 188.400 TC 35 -22.0249 -171.598 2 -21.9000 -171.700 TC 55 2 280
1972366S08174 1973 142 SP MM NOT_NAMED 1973-01-03 21:00:00 TS -21.9600 188.250 main 918 918 P________PP_P_ SH071973 -21.9700 -171.735 -1 -21.9700 -171.735 TC 35 -21.9874 -171.738 2 -21.9124 -171.793 TC 57 3 266
1972366S08174 1973 142 SP MM NOT_NAMED 1973-01-04 00:00:00 TS -22.0000 188.100 main 918 918 O________OO_O_ jtwc_sh SH071973 -22.0000 -171.900 -1 -22.0000 188.100 TC 35 -22.0000 -171.900 2 -22.0000 -171.900 TC 60 4 231
1972366S08174 1973 142 SP MM NOT_NAMED 1973-01-04 03:00:00 TS -22.2076 187.914 main 939 939 P________PP_P_ SH071973 -22.2125 -172.092 -1 -22.2125 -172.092 TC 35 -22.1853 -172.074 2 -22.2200 -172.085 TC 60 6 217
1972366S08174 1973 142 SP MM NOT_NAMED 1973-01-04 06:00:00 TS -22.4831 187.708 main 973 973 O________OP_O_ jtwc_sh SH071973 -22.5000 -172.300 -1 -22.5000 187.700 TC 35 -22.4325 -172.270 2 -22.5000 -172.300 TC 60 7 215
1972366S08174 1973 142 SP MM NOT_NAMED 1973-01-04 09:00:00 TS -22.7408 187.505 main 995 995 P________PP_P_ SH071973 -22.7500 -172.500 -1 -22.7500 -172.500 TC 35 -22.7134 -172.480 2 -22.7500 -172.500 TC 60 6 216
1972366S08174 1973 142 SP MM NOT_NAMED 1973-01-04 12:00:00 TS -23.0000 187.300 main 1029 1029 O________OO_O_ jtwc_sh SH071973 -23.0000 -172.700 -1 -23.0000 187.300 TC 35 -23.0000 -172.700 2 -23.0000 -172.700 TC 60 6 216
1972366S08174 1973 142 SP MM NOT_NAMED 1973-01-04 15:00:00 TS -23.2417 187.110 main 1037 1037 P________PP_P_ SH071973 -23.2499 -172.893 -1 -23.2499 -172.893 TC 35 -23.2170 -172.883 2 -23.2499 -172.893 TC 60 6 217
1972366S08174 1973 142 SP MM NOT_NAMED 1973-01-04 18:00:00 TS -23.4848 186.906 main 1044 1035 O________OP_O_ jtwc_sh SH071973 -23.5000 -173.100 -1 -23.5000 186.900 TC 35 -23.4392 -173.077 2 -23.5000 -173.100 TC 60 6 219
1972366S08174 1973 142 SP MM NOT_NAMED 1973-01-04 21:00:00 TS -23.7166 186.688 main 1039 1035 P________PP_P_ SH071973 -23.7273 -173.313 -1 -23.7273 -173.313 TC 35 -23.6918 -173.308 2 -23.7198 -173.313 TC 57 7 222
1972366S08174 1973 142 SP MM NOT_NAMED 1973-01-05 00:00:00 TS -24.0000 186.400 main 1035 1025 O________OO_O_ jtwc_sh SH071973 -24.0000 -173.600 -1 -24.0000 186.400 TC 35 -24.0000 -173.600 2 -24.0000 -173.600 TC 55 9 224
1972366S08174 1973 142 SP MM NOT_NAMED 1973-01-05 03:00:00 TS -24.3807 185.977 main 1033 1025 P________PP_P_ SH071973 -24.3626 -174.020 -1 -24.3626 -174.020 TC 35 -24.3775 -174.032 2 -24.4201 -174.020 TC 55 12 225
1972366S08174 1973 142 SP MM NOT_NAMED 1973-01-05 06:00:00 TS -24.8280 185.495 main 1027 1027 O________OP_O_ jtwc_sh SH071973 -24.8000 -174.500 -1 -24.8000 185.500 TC 35 -24.8118 -174.520 2 -24.9000 -174.500 TC 55 13 224
1972366S08174 1973 142 SP MM NOT_NAMED 1973-01-05 09:00:00 TS -25.3045 185.010 main 1034 1034 P________PP_P_ SH071973 -25.2926 -174.987 -1 -25.2926 -174.987 TC 35 -25.2900 -174.998 2 -25.3426 -174.987 TC 55 13 220
1972366S08174 1973 142 SP MM NOT_NAMED 1973-01-05 12:00:00 TS -25.8000 184.600 main 1053 1053 O________OO_O_ jtwc_sh SH071973 -25.8000 -175.400 -1 -25.8000 184.600 TC 35 -25.8000 -175.400 2 -25.8000 -175.400 TC 55 11 213
1972366S08174 1973 142 SP MM NOT_NAMED 1973-01-05 15:00:00 TS -26.2459 184.344 main 1073 1073 P________PP_P_ SH071973 -26.2273 -175.653 -1 -26.2273 -175.653 TC 35 -26.2516 -175.666 2 -26.2773 -175.653 TC 52 10 202
1972366S08174 1973 142 SP MM NOT_NAMED 1973-01-05 18:00:00 TS -26.7355 184.189 main 1114 1114 O________OP_O_ jtwc_sh SH071973 -26.7000 -175.800 -1 -26.7000 184.200 TC 35 -26.7419 -175.843 2 -26.8000 -175.800 TC 50 11 193
1972366S08174 1973 142 SP MM NOT_NAMED 1973-01-05 21:00:00 TS -27.2966 184.074 main 1167 1167 P________PP_P_ SH071973 -27.2750 -175.915 -1 -27.2750 -175.915 TC 35 -27.3113 -175.949 2 -27.3250 -175.923 TC 50 13 187
1972366S08174 1973 142 SP MM NOT_NAMED 1973-01-06 00:00:00 TS -28.0000 184.000 main 1192 1107 O________OO_O_ jtwc_sh SH071973 -28.0000 -176.000 -1 -28.0000 184.000 TC 35 -28.0000 -176.000 2 -28.0000 -176.000 TC 50 16 186
1972366S08174 1973 142 SP MM NOT_NAMED 1973-01-06 03:00:00 TS -28.8965 183.878 main 1096 1002 P________PP_P_ SH071973 -28.8976 -176.136 -1 -28.8976 -176.136 TC 35 -28.8435 -176.135 2 -28.9475 -176.079 TC 50 19 185
1972366S08174 1973 142 SP MM NOT_NAMED 1973-01-06 06:00:00 TS -29.9013 183.823 main 992 904 O________OP_O_ jtwc_sh SH071973 -29.9000 -176.200 -1 -29.9000 183.800 TC 35 -29.8053 -176.207 2 -30.0000 -176.100 TC 50 20 181
1972366S08174 1973 142 SP MM NOT_NAMED 1973-01-06 09:00:00 TS -30.8801 183.860 main 899 826 P________PP_P_ SH071973 -30.8770 -176.161 -1 -30.8770 -176.161 TC 35 -30.8394 -176.151 2 -30.9271 -176.088 TC 47 20 173
1972366S08174 1973 142 SP MM NOT_NAMED 1973-01-06 12:00:00 TS -31.9000 184.100 main 817 754 O________OO_O_ jtwc_sh SH071973 -31.9000 -175.900 -1 -31.9000 184.100 TC 35 -31.9000 -175.900 2 -31.9000 -175.900 TC 45 22 164
1972366S08174 1973 142 SP MM NOT_NAMED 1973-01-06 15:00:00 TS -33.0182 184.605 main 754 722 P________PP_P_ SH071973 -33.0075 -175.356 -1 -33.0075 -175.356 TC 35 -33.0010 -175.390 2 -33.0569 -175.477 TC 45 25 155
1972366S08174 1973 142 SP MM NOT_NAMED 1973-01-06 18:00:00 TS -34.1254 185.332 main 723 717 O________OP_O_ jtwc_sh SH071973 -34.1000 -174.600 -1 -34.1000 185.400 TC 35 -34.1017 -174.671 2 -34.2000 -174.800 TC 45 25 148
1972366S08174 1973 142 SP MM NOT_NAMED 1973-01-06 21:00:00 TS -35.1473 186.182 main 737 732 P________PP_P_ SH071973 -35.1324 -173.780 -1 -35.1324 -173.780 TC 35 -35.1261 -173.814 2 -35.1982 -173.897 TC 42 24 142
1972366S08174 1973 142 SP MM NOT_NAMED 1973-01-07 00:00:00 TS -36.0000 187.100 main 777 777 O________OO_O_ jtwc_sh SH071973 -36.0000 -172.900 -1 -36.0000 187.100 TC 35 -36.0000 -172.900 2 -36.0000 -172.900 TC 40 20 136
1972366S08174 1973 142 SP MM NOT_NAMED 1973-01-07 03:00:00 TS -36.6170 187.943 main 830 830 P________PP_P_ SH071973 -36.6316 -172.055 -1 -36.6316 -172.055 TC 35 -36.6386 -172.079 2 -36.5663 -172.039 TC 40 17 129
1972366S08174 1973 142 SP MM NOT_NAMED 1973-01-07 06:00:00 TS -37.0815 188.793 main 900 900 O________OP_O_ jtwc_sh SH071973 -37.1000 -171.200 -1 -37.1000 188.800 TC 35 -37.1259 -171.227 2 -37.0000 -171.200 TC 40 16 123
1972366S08174 1973 142 SP MM NOT_NAMED 1973-01-07 09:00:00 TS -37.5062 189.670 main 974 974 P________PP_P_ SH071973 -37.5214 -170.328 -1 -37.5214 -170.328 TC 35 -37.5254 -170.336 2 -37.4564 -170.328 TC 37 16 120
1972366S08174 1973 142 SP MM NOT_NAMED 1973-01-07 12:00:00 TS -37.9000 190.600 main 1051 1051 O________OO_O_ jtwc_sh SH071973 -37.9000 -169.400 -1 -37.9000 190.600 TC 35 -37.9000 -169.400 2 -37.9000 -169.400 TC 35 17 118
1972366S08174 1973 142 SP MM NOT_NAMED 1973-01-07 15:00:00 TS -38.3200 191.621 main 1137 1137 P________PP_P_ SH071973 -38.2922 -168.371 -1 -38.2922 -168.371 TC 35 -38.3384 -168.401 2 -38.3571 -168.372 TC 35 18 117
1972366S08174 1973 142 SP MM NOT_NAMED 1973-01-07 18:00:00 TS -38.7409 192.686 main 1232 1232 O________OP_O_ jtwc_sh SH071973 -38.7000 -167.300 -1 -38.7000 192.700 TC 35 -38.7636 -167.355 2 -38.8000 -167.300 TC 35 19 117
1972366S08174 1973 142 SP MM NOT_NAMED 1973-01-07 21:00:00 TS -39.1697 193.743 main 1320 1320 P________PP_P_ SH071973 -39.1491 -166.249 -1 -39.1491 -166.249 TC 35 -39.1818 -166.282 2 -39.1991 -166.248 TC 35 18 118
1972366S08174 1973 142 SP MM NOT_NAMED 1973-01-08 00:00:00 TS -39.6000 194.800 main 1416 1416 O________OO_O_ jtwc_sh SH071973 -39.6000 -165.200 -1 -39.6000 194.800 TC 35 -39.6000 -165.200 2 -39.6000 -165.200 TC 35 18 118
1972366S08174 1973 142 SP MM NOT_NAMED 1973-01-08 03:00:00 TS -40.0176 195.852 main 1513 1513 P________PP_P_ SH071973 -39.9988 -164.155 -1 -39.9988 -164.155 TC 35 -40.0240 -164.125 2 -40.0489 -164.157 TC 35 18 117
1972366S08174 1973 142 SP MM NOT_NAMED 1973-01-08 06:00:00 TS -40.4379 196.912 main 1601 1601 O________OP_O_ jtwc_sh SH071973 -40.4000 -163.100 -1 -40.4000 196.900 TC 35 -40.4516 -163.054 2 -40.5000 -163.100 TC 35 18 118
1972366S08174 1973 142 SP MM NOT_NAMED 1973-01-08 09:00:00 TS -40.8682 197.995 main 1697 1697 P________PP_P_ SH071973 -40.8398 -162.014 -1 -40.8398 -162.014 TC 35 -40.8785 -161.981 2 -40.9148 -162.012 TC 35 19 118
1972366S08174 1973 142 SP MM NOT_NAMED 1973-01-08 12:00:00 TS -41.3000 199.100 main 1791 O________OO_O_ jtwc_sh SH071973 -41.3000 -160.900 -1 -41.3000 199.100 TC 35 -41.3000 -160.900 2 -41.3000 -160.900 TC 35 19 117

デジタル台風データ・検索

IBTrACS Databaseについて

本データベースは、米国NOAAが公開する1842年以降の世界の熱帯低気圧のベストトラックデータアーカイブInternational Best Track Archive for Climate Stewardship (IBTrACS)を、ウェブで閲覧しやすい形式に変換したものです。

最終更新日:2021-11-26